sensor_id;sensor_type;location;lat;lon;timestamp;temperature;humidity
21001;DHT22;10658;50.920;12.238;2024-01-30T00:03:21;3.50;99.90
21001;DHT22;10658;50.920;12.238;2024-01-30T00:07:22;3.60;99.90
21001;DHT22;10658;50.920;12.238;2024-01-30T00:11:23;3.70;99.90
21001;DHT22;10658;50.920;12.238;2024-01-30T00:15:26;3.70;99.90
21001;DHT22;10658;50.920;12.238;2024-01-30T00:19:26;3.80;99.90
21001;DHT22;10658;50.920;12.238;2024-01-30T00:23:27;3.70;99.90
21001;DHT22;10658;50.920;12.238;2024-01-30T00:27:28;3.60;99.90
21001;DHT22;10658;50.920;12.238;2024-01-30T00:31:29;3.40;99.90
21001;DHT22;10658;50.920;12.238;2024-01-30T00:35:30;3.40;99.90
21001;DHT22;10658;50.920;12.238;2024-01-30T00:39:30;3.30;99.90
21001;DHT22;10658;50.920;12.238;2024-01-30T00:43:31;3.30;99.90
21001;DHT22;10658;50.920;12.238;2024-01-30T00:47:32;3.30;99.90
21001;DHT22;10658;50.920;12.238;2024-01-30T00:51:33;3.60;99.90
21001;DHT22;10658;50.920;12.238;2024-01-30T00:55:35;3.70;99.90
21001;DHT22;10658;50.920;12.238;2024-01-30T00:59:35;3.90;99.90
21001;DHT22;10658;50.920;12.238;2024-01-30T01:03:36;4.10;99.90
21001;DHT22;10658;50.920;12.238;2024-01-30T01:07:37;4.00;99.90
21001;DHT22;10658;50.920;12.238;2024-01-30T01:11:38;3.90;99.90
21001;DHT22;10658;50.920;12.238;2024-01-30T01:15:39;3.90;99.90
21001;DHT22;10658;50.920;12.238;2024-01-30T01:19:39;3.80;99.90
21001;DHT22;10658;50.920;12.238;2024-01-30T01:23:41;4.00;99.90
21001;DHT22;10658;50.920;12.238;2024-01-30T01:27:41;4.10;99.90
21001;DHT22;10658;50.920;12.238;2024-01-30T01:31:43;4.10;99.90
21001;DHT22;10658;50.920;12.238;2024-01-30T01:35:44;3.90;99.90
21001;DHT22;10658;50.920;12.238;2024-01-30T01:39:45;3.80;99.90
21001;DHT22;10658;50.920;12.238;2024-01-30T01:43:46;3.60;99.90
21001;DHT22;10658;50.920;12.238;2024-01-30T01:47:56;3.40;99.90
21001;DHT22;10658;50.920;12.238;2024-01-30T01:51:57;3.40;99.90
21001;DHT22;10658;50.920;12.238;2024-01-30T01:55:58;3.20;99.90
21001;DHT22;10658;50.920;12.238;2024-01-30T02:00:01;3.10;99.90
21001;DHT22;10658;50.920;12.238;2024-01-30T02:04:01;3.00;99.90
21001;DHT22;10658;50.920;12.238;2024-01-30T02:08:02;2.90;99.90
21001;DHT22;10658;50.920;12.238;2024-01-30T02:12:04;2.80;99.90
21001;DHT22;10658;50.920;12.238;2024-01-30T02:16:05;2.80;99.90
21001;DHT22;10658;50.920;12.238;2024-01-30T02:20:06;2.70;99.90
21001;DHT22;10658;50.920;12.238;2024-01-30T02:24:07;2.60;99.90
21001;DHT22;10658;50.920;12.238;2024-01-30T02:28:08;2.50;99.90
21001;DHT22;10658;50.920;12.238;2024-01-30T02:32:08;2.40;99.90
21001;DHT22;10658;50.920;12.238;2024-01-30T02:36:09;2.40;99.90
21001;DHT22;10658;50.920;12.238;2024-01-30T02:40:10;2.20;99.90
21001;DHT22;10658;50.920;12.238;2024-01-30T02:44:11;2.20;99.90
21001;DHT22;10658;50.920;12.238;2024-01-30T02:48:12;2.20;99.90
21001;DHT22;10658;50.920;12.238;2024-01-30T02:52:12;2.20;99.90
21001;DHT22;10658;50.920;12.238;2024-01-30T02:56:13;2.10;99.90
21001;DHT22;10658;50.920;12.238;2024-01-30T03:00:14;1.90;99.90
21001;DHT22;10658;50.920;12.238;2024-01-30T03:04:15;1.90;99.90
21001;DHT22;10658;50.920;12.238;2024-01-30T03:08:16;2.00;99.90
21001;DHT22;10658;50.920;12.238;2024-01-30T03:12:17;1.90;99.90
21001;DHT22;10658;50.920;12.238;2024-01-30T03:16:18;2.00;99.90
21001;DHT22;10658;50.920;12.238;2024-01-30T03:20:19;2.20;99.90
21001;DHT22;10658;50.920;12.238;2024-01-30T03:24:20;2.30;99.90
21001;DHT22;10658;50.920;12.238;2024-01-30T03:28:21;2.30;99.90
21001;DHT22;10658;50.920;12.238;2024-01-30T03:32:22;2.20;99.90
21001;DHT22;10658;50.920;12.238;2024-01-30T03:36:23;2.10;99.90
21001;DHT22;10658;50.920;12.238;2024-01-30T03:40:24;2.00;99.90
21001;DHT22;10658;50.920;12.238;2024-01-30T03:44:25;1.80;99.90
21001;DHT22;10658;50.920;12.238;2024-01-30T03:48:26;1.70;99.90
21001;DHT22;10658;50.920;12.238;2024-01-30T03:52:27;1.60;99.90
21001;DHT22;10658;50.920;12.238;2024-01-30T03:56:28;1.50;99.90
21001;DHT22;10658;50.920;12.238;2024-01-30T04:00:28;1.50;99.90
21001;DHT22;10658;50.920;12.238;2024-01-30T04:04:29;1.50;99.90
21001;DHT22;10658;50.920;12.238;2024-01-30T04:08:30;1.40;99.90
21001;DHT22;10658;50.920;12.238;2024-01-30T04:12:31;1.40;99.90
21001;DHT22;10658;50.920;12.238;2024-01-30T04:16:32;1.40;99.90
21001;DHT22;10658;50.920;12.238;2024-01-30T04:20:33;1.40;99.90
21001;DHT22;10658;50.920;12.238;2024-01-30T04:24:34;1.30;99.90
21001;DHT22;10658;50.920;12.238;2024-01-30T04:28:34;1.30;99.90
21001;DHT22;10658;50.920;12.238;2024-01-30T04:32:35;1.50;99.90
21001;DHT22;10658;50.920;12.238;2024-01-30T04:36:37;1.60;99.90
21001;DHT22;10658;50.920;12.238;2024-01-30T04:40:38;1.70;99.90
21001;DHT22;10658;50.920;12.238;2024-01-30T04:44:38;1.80;99.90
21001;DHT22;10658;50.920;12.238;2024-01-30T04:48:39;1.80;99.90
21001;DHT22;10658;50.920;12.238;2024-01-30T04:52:40;2.00;99.90
21001;DHT22;10658;50.920;12.238;2024-01-30T04:56:41;2.10;99.90
21001;DHT22;10658;50.920;12.238;2024-01-30T05:00:42;2.20;99.90
21001;DHT22;10658;50.920;12.238;2024-01-30T05:04:43;2.20;99.90
21001;DHT22;10658;50.920;12.238;2024-01-30T05:08:44;2.20;99.90
21001;DHT22;10658;50.920;12.238;2024-01-30T05:12:44;2.10;99.90
21001;DHT22;10658;50.920;12.238;2024-01-30T05:16:45;2.00;99.90
21001;DHT22;10658;50.920;12.238;2024-01-30T05:20:47;1.80;99.90
21001;DHT22;10658;50.920;12.238;2024-01-30T05:24:48;1.60;99.90
21001;DHT22;10658;50.920;12.238;2024-01-30T05:28:49;1.40;99.90
21001;DHT22;10658;50.920;12.238;2024-01-30T05:32:49;1.40;99.90
21001;DHT22;10658;50.920;12.238;2024-01-30T05:36:50;1.40;99.90
21001;DHT22;10658;50.920;12.238;2024-01-30T05:40:51;1.40;99.90
21001;DHT22;10658;50.920;12.238;2024-01-30T05:44:52;1.40;99.90
21001;DHT22;10658;50.920;12.238;2024-01-30T05:48:53;1.40;99.90
21001;DHT22;10658;50.920;12.238;2024-01-30T05:52:54;1.40;99.90
21001;DHT22;10658;50.920;12.238;2024-01-30T05:56:55;1.40;99.90
21001;DHT22;10658;50.920;12.238;2024-01-30T06:00:55;1.40;99.90
21001;DHT22;10658;50.920;12.238;2024-01-30T06:04:57;1.40;99.90
21001;DHT22;10658;50.920;12.238;2024-01-30T06:08:57;1.50;99.90
21001;DHT22;10658;50.920;12.238;2024-01-30T06:12:58;1.50;99.90
21001;DHT22;10658;50.920;12.238;2024-01-30T06:16:59;1.50;99.90
21001;DHT22;10658;50.920;12.238;2024-01-30T06:21:00;1.50;99.90
21001;DHT22;10658;50.920;12.238;2024-01-30T06:25:01;1.50;99.90
21001;DHT22;10658;50.920;12.238;2024-01-30T06:29:02;1.40;99.90
21001;DHT22;10658;50.920;12.238;2024-01-30T06:33:03;1.50;99.90
21001;DHT22;10658;50.920;12.238;2024-01-30T06:37:04;1.60;99.90
21001;DHT22;10658;50.920;12.238;2024-01-30T06:41:05;1.80;99.90
21001;DHT22;10658;50.920;12.238;2024-01-30T06:45:06;2.00;99.90
21001;DHT22;10658;50.920;12.238;2024-01-30T06:49:08;2.00;99.90
21001;DHT22;10658;50.920;12.238;2024-01-30T06:53:09;2.00;99.90
21001;DHT22;10658;50.920;12.238;2024-01-30T06:57:09;2.20;99.90
21001;DHT22;10658;50.920;12.238;2024-01-30T07:01:12;2.20;99.90
21001;DHT22;10658;50.920;12.238;2024-01-30T07:05:13;2.10;99.90
21001;DHT22;10658;50.920;12.238;2024-01-30T07:09:14;2.10;99.90
21001;DHT22;10658;50.920;12.238;2024-01-30T07:13:15;2.00;99.90
21001;DHT22;10658;50.920;12.238;2024-01-30T07:17:16;2.00;99.90
21001;DHT22;10658;50.920;12.238;2024-01-30T07:21:17;1.90;99.90
21001;DHT22;10658;50.920;12.238;2024-01-30T07:25:18;2.00;99.90
21001;DHT22;10658;50.920;12.238;2024-01-30T07:29:19;2.30;99.90
21001;DHT22;10658;50.920;12.238;2024-01-30T07:33:20;2.70;99.90
21001;DHT22;10658;50.920;12.238;2024-01-30T07:37:21;2.80;99.90
21001;DHT22;10658;50.920;12.238;2024-01-30T07:41:22;3.00;99.90
21001;DHT22;10658;50.920;12.238;2024-01-30T07:45:25;3.30;99.90
21001;DHT22;10658;50.920;12.238;2024-01-30T07:49:28;3.40;99.90
21001;DHT22;10658;50.920;12.238;2024-01-30T07:53:29;3.70;99.90
21001;DHT22;10658;50.920;12.238;2024-01-30T07:57:30;3.90;99.90
21001;DHT22;10658;50.920;12.238;2024-01-30T08:01:31;4.00;99.90
21001;DHT22;10658;50.920;12.238;2024-01-30T08:05:31;4.10;99.90
21001;DHT22;10658;50.920;12.238;2024-01-30T08:09:32;4.30;99.90
21001;DHT22;10658;50.920;12.238;2024-01-30T08:13:33;4.40;99.90
21001;DHT22;10658;50.920;12.238;2024-01-30T08:17:34;4.50;99.90
21001;DHT22;10658;50.920;12.238;2024-01-30T08:21:35;4.60;99.90
21001;DHT22;10658;50.920;12.238;2024-01-30T08:25:37;4.80;99.90
21001;DHT22;10658;50.920;12.238;2024-01-30T08:29:38;4.90;99.90
21001;DHT22;10658;50.920;12.238;2024-01-30T08:33:39;5.10;99.90
21001;DHT22;10658;50.920;12.238;2024-01-30T08:37:40;5.30;99.90
21001;DHT22;10658;50.920;12.238;2024-01-30T08:41:40;5.40;99.90
21001;DHT22;10658;50.920;12.238;2024-01-30T08:45:42;5.40;99.90
21001;DHT22;10658;50.920;12.238;2024-01-30T08:49:43;5.50;99.90
21001;DHT22;10658;50.920;12.238;2024-01-30T08:53:44;5.40;99.90
21001;DHT22;10658;50.920;12.238;2024-01-30T08:57:45;5.40;99.90
21001;DHT22;10658;50.920;12.238;2024-01-30T09:07:18;5.50;99.90
21001;DHT22;10658;50.920;12.238;2024-01-30T09:11:19;5.60;99.90
21001;DHT22;10658;50.920;12.238;2024-01-30T09:15:20;5.70;99.90
21001;DHT22;10658;50.920;12.238;2024-01-30T09:19:21;5.90;99.90
21001;DHT22;10658;50.920;12.238;2024-01-30T09:23:22;6.10;99.90
21001;DHT22;10658;50.920;12.238;2024-01-30T09:27:23;6.20;99.90
21001;DHT22;10658;50.920;12.238;2024-01-30T09:31:24;6.40;99.90
21001;DHT22;10658;50.920;12.238;2024-01-30T09:35:24;6.50;99.90
21001;DHT22;10658;50.920;12.238;2024-01-30T09:39:25;6.70;99.90
21001;DHT22;10658;50.920;12.238;2024-01-30T09:43:30;6.80;99.90
21001;DHT22;10658;50.920;12.238;2024-01-30T09:47:44;6.70;99.90
21001;DHT22;10658;50.920;12.238;2024-01-30T09:51:45;6.80;99.90
21001;DHT22;10658;50.920;12.238;2024-01-30T09:55:47;6.90;99.90
21001;DHT22;10658;50.920;12.238;2024-01-30T09:59:48;6.90;99.90
21001;DHT22;10658;50.920;12.238;2024-01-30T10:03:50;6.90;99.90
21001;DHT22;10658;50.920;12.238;2024-01-30T10:07:53;7.00;99.90
21001;DHT22;10658;50.920;12.238;2024-01-30T10:11:55;7.20;99.90
21001;DHT22;10658;50.920;12.238;2024-01-30T10:15:56;7.30;99.90
21001;DHT22;10658;50.920;12.238;2024-01-30T10:19:58;7.30;99.90
21001;DHT22;10658;50.920;12.238;2024-01-30T10:23:59;7.30;99.90
21001;DHT22;10658;50.920;12.238;2024-01-30T10:28:00;7.30;99.90
21001;DHT22;10658;50.920;12.238;2024-01-30T10:32:06;7.40;99.90
21001;DHT22;10658;50.920;12.238;2024-01-30T10:36:08;7.40;99.90
21001;DHT22;10658;50.920;12.238;2024-01-30T10:40:09;7.40;99.90
21001;DHT22;10658;50.920;12.238;2024-01-30T10:44:17;7.60;99.90
21001;DHT22;10658;50.920;12.238;2024-01-30T10:48:19;7.70;99.90
21001;DHT22;10658;50.920;12.238;2024-01-30T10:52:24;7.70;99.90
21001;DHT22;10658;50.920;12.238;2024-01-30T10:56:26;7.90;99.90
21001;DHT22;10658;50.920;12.238;2024-01-30T11:00:28;7.90;99.90
21001;DHT22;10658;50.920;12.238;2024-01-30T11:04:36;8.00;99.90
21001;DHT22;10658;50.920;12.238;2024-01-30T11:08:37;8.10;99.90
21001;DHT22;10658;50.920;12.238;2024-01-30T11:12:39;8.10;99.90
21001;DHT22;10658;50.920;12.238;2024-01-30T11:16:46;8.10;99.90
21001;DHT22;10658;50.920;12.238;2024-01-30T11:20:48;8.10;99.90
21001;DHT22;10658;50.920;12.238;2024-01-30T11:24:49;8.30;99.90
21001;DHT22;10658;50.920;12.238;2024-01-30T11:28:53;8.40;99.90
21001;DHT22;10658;50.920;12.238;2024-01-30T11:33:09;8.50;99.90
21001;DHT22;10658;50.920;12.238;2024-01-30T11:37:12;8.50;99.90
21001;DHT22;10658;50.920;12.238;2024-01-30T11:41:14;8.60;99.90
21001;DHT22;10658;50.920;12.238;2024-01-30T11:45:17;8.70;99.90
21001;DHT22;10658;50.920;12.238;2024-01-30T11:49:18;8.80;99.90
21001;DHT22;10658;50.920;12.238;2024-01-30T11:53:19;9.00;99.90
21001;DHT22;10658;50.920;12.238;2024-01-30T11:57:20;9.10;99.90
21001;DHT22;10658;50.920;12.238;2024-01-30T12:01:21;9.20;99.90
21001;DHT22;10658;50.920;12.238;2024-01-30T12:05:25;9.20;99.90
21001;DHT22;10658;50.920;12.238;2024-01-30T12:09:26;9.30;99.90
21001;DHT22;10658;50.920;12.238;2024-01-30T12:13:29;9.40;99.90
21001;DHT22;10658;50.920;12.238;2024-01-30T12:17:32;9.50;99.90
21001;DHT22;10658;50.920;12.238;2024-01-30T12:21:33;9.60;99.90
21001;DHT22;10658;50.920;12.238;2024-01-30T12:25:34;9.60;99.90
21001;DHT22;10658;50.920;12.238;2024-01-30T12:29:35;9.70;99.90
21001;DHT22;10658;50.920;12.238;2024-01-30T12:33:36;9.80;99.90
21001;DHT22;10658;50.920;12.238;2024-01-30T12:37:37;9.90;99.90
21001;DHT22;10658;50.920;12.238;2024-01-30T12:41:38;10.00;99.90
21001;DHT22;10658;50.920;12.238;2024-01-30T12:45:40;10.00;99.90
21001;DHT22;10658;50.920;12.238;2024-01-30T12:49:42;10.10;99.90
21001;DHT22;10658;50.920;12.238;2024-01-30T12:53:43;10.10;99.90
21001;DHT22;10658;50.920;12.238;2024-01-30T12:57:44;10.10;99.90
21001;DHT22;10658;50.920;12.238;2024-01-30T13:01:45;10.10;99.90
21001;DHT22;10658;50.920;12.238;2024-01-30T13:05:46;10.20;99.90
21001;DHT22;10658;50.920;12.238;2024-01-30T13:09:47;10.20;99.90
21001;DHT22;10658;50.920;12.238;2024-01-30T13:13:48;10.20;99.90
21001;DHT22;10658;50.920;12.238;2024-01-30T13:17:49;10.20;99.90
21001;DHT22;10658;50.920;12.238;2024-01-30T13:21:50;10.30;99.90
21001;DHT22;10658;50.920;12.238;2024-01-30T13:25:51;10.30;99.90
21001;DHT22;10658;50.920;12.238;2024-01-30T13:29:54;10.40;99.90
21001;DHT22;10658;50.920;12.238;2024-01-30T13:33:55;10.60;99.90
21001;DHT22;10658;50.920;12.238;2024-01-30T13:37:55;10.70;99.90
21001;DHT22;10658;50.920;12.238;2024-01-30T13:41:56;10.80;99.90
21001;DHT22;10658;50.920;12.238;2024-01-30T13:45:57;10.80;99.90
21001;DHT22;10658;50.920;12.238;2024-01-30T13:49:58;10.90;99.90
21001;DHT22;10658;50.920;12.238;2024-01-30T13:53:59;10.90;99.90
21001;DHT22;10658;50.920;12.238;2024-01-30T13:57:59;10.90;99.90
21001;DHT22;10658;50.920;12.238;2024-01-30T14:02:02;10.80;99.90
21001;DHT22;10658;50.920;12.238;2024-01-30T14:06:03;10.70;99.90
21001;DHT22;10658;50.920;12.238;2024-01-30T14:10:04;10.80;99.90
21001;DHT22;10658;50.920;12.238;2024-01-30T14:14:06;10.70;99.90
21001;DHT22;10658;50.920;12.238;2024-01-30T14:18:07;10.80;99.90
21001;DHT22;10658;50.920;12.238;2024-01-30T14:22:09;10.80;99.90
21001;DHT22;10658;50.920;12.238;2024-01-30T14:26:10;10.70;99.90
21001;DHT22;10658;50.920;12.238;2024-01-30T14:30:11;10.60;99.90
21001;DHT22;10658;50.920;12.238;2024-01-30T14:34:12;10.60;99.90
21001;DHT22;10658;50.920;12.238;2024-01-30T14:38:14;10.50;99.90
21001;DHT22;10658;50.920;12.238;2024-01-30T14:42:16;10.40;99.90
21001;DHT22;10658;50.920;12.238;2024-01-30T14:46:17;10.40;99.90
21001;DHT22;10658;50.920;12.238;2024-01-30T14:50:18;10.30;99.90
21001;DHT22;10658;50.920;12.238;2024-01-30T14:54:18;10.20;99.90
21001;DHT22;10658;50.920;12.238;2024-01-30T14:58:26;10.10;99.90
21001;DHT22;10658;50.920;12.238;2024-01-30T15:02:27;10.00;99.90
21001;DHT22;10658;50.920;12.238;2024-01-30T15:06:27;10.00;99.90
21001;DHT22;10658;50.920;12.238;2024-01-30T15:10:28;9.90;99.90
21001;DHT22;10658;50.920;12.238;2024-01-30T15:14:29;9.90;99.90
21001;DHT22;10658;50.920;12.238;2024-01-30T15:18:30;9.80;99.90
21001;DHT22;10658;50.920;12.238;2024-01-30T15:22:31;9.70;99.90
21001;DHT22;10658;50.920;12.238;2024-01-30T15:26:32;9.60;99.90
21001;DHT22;10658;50.920;12.238;2024-01-30T15:30:35;9.50;99.90
21001;DHT22;10658;50.920;12.238;2024-01-30T15:34:36;9.40;99.90
21001;DHT22;10658;50.920;12.238;2024-01-30T15:38:37;9.30;99.90
21001;DHT22;10658;50.920;12.238;2024-01-30T15:42:38;9.30;99.90
21001;DHT22;10658;50.920;12.238;2024-01-30T15:46:39;9.20;99.90
21001;DHT22;10658;50.920;12.238;2024-01-30T15:50:40;9.20;99.90
21001;DHT22;10658;50.920;12.238;2024-01-30T15:55:06;9.00;99.90
21001;DHT22;10658;50.920;12.238;2024-01-30T15:59:17;9.10;99.90
21001;DHT22;10658;50.920;12.238;2024-01-30T16:03:17;9.00;99.90
21001;DHT22;10658;50.920;12.238;2024-01-30T16:07:18;8.90;99.90
21001;DHT22;10658;50.920;12.238;2024-01-30T16:11:19;8.80;99.90
21001;DHT22;10658;50.920;12.238;2024-01-30T16:15:20;8.80;99.90
21001;DHT22;10658;50.920;12.238;2024-01-30T16:19:21;8.80;99.90
21001;DHT22;10658;50.920;12.238;2024-01-30T16:23:22;8.80;99.90
21001;DHT22;10658;50.920;12.238;2024-01-30T16:27:23;8.80;99.90
21001;DHT22;10658;50.920;12.238;2024-01-30T16:31:24;8.80;99.90
21001;DHT22;10658;50.920;12.238;2024-01-30T16:35:25;8.70;99.90
21001;DHT22;10658;50.920;12.238;2024-01-30T16:39:25;8.70;99.90
21001;DHT22;10658;50.920;12.238;2024-01-30T16:43:27;8.70;99.90
21001;DHT22;10658;50.920;12.238;2024-01-30T16:47:27;8.60;99.90
21001;DHT22;10658;50.920;12.238;2024-01-30T16:51:29;8.50;99.90
21001;DHT22;10658;50.920;12.238;2024-01-30T16:55:36;8.50;99.90
21001;DHT22;10658;50.920;12.238;2024-01-30T17:00:12;8.50;99.90
21001;DHT22;10658;50.920;12.238;2024-01-30T17:04:24;8.50;99.90
21001;DHT22;10658;50.920;12.238;2024-01-30T17:08:25;8.40;99.90
21001;DHT22;10658;50.920;12.238;2024-01-30T17:12:26;8.30;99.90
21001;DHT22;10658;50.920;12.238;2024-01-30T17:16:27;8.20;99.90
21001;DHT22;10658;50.920;12.238;2024-01-30T17:20:27;8.20;99.90
21001;DHT22;10658;50.920;12.238;2024-01-30T17:24:28;8.10;99.90
21001;DHT22;10658;50.920;12.238;2024-01-30T17:28:29;8.10;99.90
21001;DHT22;10658;50.920;12.238;2024-01-30T17:32:30;8.00;99.90
21001;DHT22;10658;50.920;12.238;2024-01-30T17:36:31;8.00;99.90
21001;DHT22;10658;50.920;12.238;2024-01-30T17:40:32;7.90;99.90
21001;DHT22;10658;50.920;12.238;2024-01-30T17:44:33;8.00;99.90
21001;DHT22;10658;50.920;12.238;2024-01-30T17:48:36;8.00;99.90
21001;DHT22;10658;50.920;12.238;2024-01-30T17:52:37;8.10;99.90
21001;DHT22;10658;50.920;12.238;2024-01-30T17:56:38;8.20;99.90
21001;DHT22;10658;50.920;12.238;2024-01-30T18:00:39;8.10;99.90
21001;DHT22;10658;50.920;12.238;2024-01-30T18:04:40;8.10;99.90
21001;DHT22;10658;50.920;12.238;2024-01-30T18:08:41;8.00;99.90
21001;DHT22;10658;50.920;12.238;2024-01-30T18:12:42;7.90;99.90
21001;DHT22;10658;50.920;12.238;2024-01-30T18:16:43;8.00;99.90
21001;DHT22;10658;50.920;12.238;2024-01-30T18:20:44;8.00;99.90
21001;DHT22;10658;50.920;12.238;2024-01-30T18:24:44;8.00;99.90
21001;DHT22;10658;50.920;12.238;2024-01-30T18:28:45;8.00;99.90
21001;DHT22;10658;50.920;12.238;2024-01-30T18:32:46;7.90;99.90
21001;DHT22;10658;50.920;12.238;2024-01-30T18:36:49;7.90;99.90
21001;DHT22;10658;50.920;12.238;2024-01-30T18:40:49;7.80;99.90
21001;DHT22;10658;50.920;12.238;2024-01-30T18:44:50;7.80;99.90
21001;DHT22;10658;50.920;12.238;2024-01-30T18:48:52;7.70;99.90
21001;DHT22;10658;50.920;12.238;2024-01-30T18:52:53;7.70;99.90
21001;DHT22;10658;50.920;12.238;2024-01-30T18:56:54;7.70;99.90
21001;DHT22;10658;50.920;12.238;2024-01-30T19:00:55;7.70;99.90
21001;DHT22;10658;50.920;12.238;2024-01-30T19:04:56;7.60;99.90
21001;DHT22;10658;50.920;12.238;2024-01-30T19:08:59;7.60;99.90
21001;DHT22;10658;50.920;12.238;2024-01-30T19:12:59;7.60;99.90
21001;DHT22;10658;50.920;12.238;2024-01-30T19:17:00;7.50;99.90
21001;DHT22;10658;50.920;12.238;2024-01-30T19:21:01;7.50;99.90
21001;DHT22;10658;50.920;12.238;2024-01-30T19:25:03;7.50;99.90
21001;DHT22;10658;50.920;12.238;2024-01-30T19:29:05;7.50;99.90
21001;DHT22;10658;50.920;12.238;2024-01-30T19:33:06;7.50;99.90
21001;DHT22;10658;50.920;12.238;2024-01-30T19:37:07;7.50;99.90
21001;DHT22;10658;50.920;12.238;2024-01-30T19:41:12;7.40;99.90
21001;DHT22;10658;50.920;12.238;2024-01-30T19:45:14;7.40;99.90
21001;DHT22;10658;50.920;12.238;2024-01-30T19:49:15;7.30;99.90
21001;DHT22;10658;50.920;12.238;2024-01-30T19:53:17;7.30;99.90
21001;DHT22;10658;50.920;12.238;2024-01-30T19:57:18;7.20;99.90
21001;DHT22;10658;50.920;12.238;2024-01-30T20:01:19;7.30;99.90
21001;DHT22;10658;50.920;12.238;2024-01-30T20:05:20;7.30;99.90
21001;DHT22;10658;50.920;12.238;2024-01-30T20:09:21;7.20;99.90
21001;DHT22;10658;50.920;12.238;2024-01-30T20:13:23;7.20;99.90
21001;DHT22;10658;50.920;12.238;2024-01-30T20:17:24;7.10;99.90
21001;DHT22;10658;50.920;12.238;2024-01-30T20:21:25;7.00;99.90
21001;DHT22;10658;50.920;12.238;2024-01-30T20:25:26;6.90;99.90
21001;DHT22;10658;50.920;12.238;2024-01-30T20:29:27;6.80;99.90
21001;DHT22;10658;50.920;12.238;2024-01-30T20:33:28;6.70;99.90
21001;DHT22;10658;50.920;12.238;2024-01-30T20:37:29;6.60;99.90
21001;DHT22;10658;50.920;12.238;2024-01-30T20:41:37;6.50;99.90
21001;DHT22;10658;50.920;12.238;2024-01-30T20:45:38;6.50;99.90
21001;DHT22;10658;50.920;12.238;2024-01-30T20:49:39;6.40;99.90
21001;DHT22;10658;50.920;12.238;2024-01-30T20:53:40;6.30;99.90
21001;DHT22;10658;50.920;12.238;2024-01-30T20:57:44;6.30;99.90
21001;DHT22;10658;50.920;12.238;2024-01-30T21:01:45;6.40;99.90
21001;DHT22;10658;50.920;12.238;2024-01-30T21:05:45;6.40;99.90
21001;DHT22;10658;50.920;12.238;2024-01-30T21:09:46;6.40;99.90
21001;DHT22;10658;50.920;12.238;2024-01-30T21:13:48;6.40;99.90
21001;DHT22;10658;50.920;12.238;2024-01-30T21:17:49;6.40;99.90
21001;DHT22;10658;50.920;12.238;2024-01-30T21:21:50;6.30;99.90
21001;DHT22;10658;50.920;12.238;2024-01-30T21:25:51;6.20;99.90
21001;DHT22;10658;50.920;12.238;2024-01-30T21:29:51;6.20;99.90
21001;DHT22;10658;50.920;12.238;2024-01-30T21:33:52;6.20;99.90
21001;DHT22;10658;50.920;12.238;2024-01-30T21:37:54;6.30;99.90
21001;DHT22;10658;50.920;12.238;2024-01-30T21:41:55;6.30;99.90
21001;DHT22;10658;50.920;12.238;2024-01-30T21:45:56;6.50;99.90
21001;DHT22;10658;50.920;12.238;2024-01-30T21:49:57;6.50;99.90
21001;DHT22;10658;50.920;12.238;2024-01-30T21:53:58;6.60;99.90
21001;DHT22;10658;50.920;12.238;2024-01-30T21:57:58;6.60;99.90
21001;DHT22;10658;50.920;12.238;2024-01-30T22:01:59;6.60;99.90
21001;DHT22;10658;50.920;12.238;2024-01-30T22:06:00;6.60;99.90
21001;DHT22;10658;50.920;12.238;2024-01-30T22:10:00;6.60;99.90
21001;DHT22;10658;50.920;12.238;2024-01-30T22:14:03;6.60;99.90
21001;DHT22;10658;50.920;12.238;2024-01-30T22:18:04;6.60;99.90
21001;DHT22;10658;50.920;12.238;2024-01-30T22:22:05;6.50;99.90
21001;DHT22;10658;50.920;12.238;2024-01-30T22:26:06;6.50;99.90
21001;DHT22;10658;50.920;12.238;2024-01-30T22:30:07;6.60;99.90
21001;DHT22;10658;50.920;12.238;2024-01-30T22:34:08;6.60;99.90
21001;DHT22;10658;50.920;12.238;2024-01-30T22:38:08;6.60;99.90
21001;DHT22;10658;50.920;12.238;2024-01-30T22:42:09;6.60;99.90
21001;DHT22;10658;50.920;12.238;2024-01-30T22:46:10;6.60;99.90
21001;DHT22;10658;50.920;12.238;2024-01-30T22:50:11;6.60;99.90
21001;DHT22;10658;50.920;12.238;2024-01-30T22:54:12;6.50;99.90
21001;DHT22;10658;50.920;12.238;2024-01-30T22:58:12;6.50;99.90
21001;DHT22;10658;50.920;12.238;2024-01-30T23:02:15;6.60;99.90
21001;DHT22;10658;50.920;12.238;2024-01-30T23:06:15;6.80;99.90
21001;DHT22;10658;50.920;12.238;2024-01-30T23:10:16;6.90;99.90
21001;DHT22;10658;50.920;12.238;2024-01-30T23:14:17;7.00;99.90
21001;DHT22;10658;50.920;12.238;2024-01-30T23:18:19;7.00;99.90
21001;DHT22;10658;50.920;12.238;2024-01-30T23:22:19;7.00;99.90
21001;DHT22;10658;50.920;12.238;2024-01-30T23:26:20;7.10;99.90
21001;DHT22;10658;50.920;12.238;2024-01-30T23:30:21;7.10;99.90
21001;DHT22;10658;50.920;12.238;2024-01-30T23:34:21;7.10;99.90
21001;DHT22;10658;50.920;12.238;2024-01-30T23:38:22;7.10;99.90
21001;DHT22;10658;50.920;12.238;2024-01-30T23:42:23;7.10;99.90
21001;DHT22;10658;50.920;12.238;2024-01-30T23:46:23;7.10;99.90
21001;DHT22;10658;50.920;12.238;2024-01-30T23:50:24;7.00;99.90
21001;DHT22;10658;50.920;12.238;2024-01-30T23:54:25;7.00;99.90
21001;DHT22;10658;50.920;12.238;2024-01-30T23:58:25;6.90;99.90
